Weather reports worldwide

Advertisment
Rodkallen, Sweden (2188): temperature & dewpoint: 17.01.2019 03:00:00 - 23.01.2019 03:00:00 (CET)Rodkallen, Sweden (2188): wind speed & gusts: 17.01.2019 03:00:00 - 23.01.2019 03:00:00 (CET)Rodkallen, Sweden (2188): wind direction: 17.01.2019 03:00:00 - 23.01.2019 03:00:00 (CET)Rodkallen, Sweden (2188): visibility: 17.01.2019 03:00:00 - 23.01.2019 03:00:00 (CET)Rodkallen, Sweden (2188): precipitation: 17.01.2019 03:00:00 - 23.01.2019 03:00:00 (CET)
Date & Time tt [°C] td [°C] ff [km/h] ff [kn] fx [km/h] fx [kn] dd vv [km] rr [mm]
23.01.2019 03:00:00 - - - - - - - - -
23.01.2019 02:00:00 -13,6 -15,7 22 12 30 16 N 6 0,0
23.01.2019 01:00:00 -14,4 -16,5 15 8 23 12 N 50 0,0
23.01.2019 00:00:00 -15,8 -18,0 15 8 22 12 N 46 0,0
22.01.2019 23:00:00 -17,9 -20,5 10 6 19 11 NNW 50 0,0
22.01.2019 22:00:00 -17,9 -20,5 12 7 18 10 NW 50 0,0
22.01.2019 21:00:00 -17,9 -20,6 8 4 14 7 NW 50 0,0
22.01.2019 20:00:00 -15,3 -18,3 10 5 26 14 NW 50 0,0
22.01.2019 19:00:00 -11,9 -14,8 11 6 36 20 NW 50 0,0
22.01.2019 18:00:00 -10,9 -13,4 25 14 36 20 W 50 0,0
22.01.2019 17:00:00 -10,4 -12,6 28 15 36 19 WSW 50 0,0
22.01.2019 16:00:00 -10,0 -12,3 29 16 35 19 WSW 50 0,0
22.01.2019 15:00:00 -9,8 -12,6 24 13 34 18 SW 50 0,0
22.01.2019 14:00:00 -10,4 -12,9 23 12 27 14 WSW 50 0,0
22.01.2019 13:00:00 -10,9 -12,9 16 9 22 12 WSW 38 0,0
22.01.2019 12:00:00 -11,3 -13,5 16 9 21 11 WSW 50 0,0
22.01.2019 11:00:00 -11,0 -13,0 16 9 21 11 WSW 36 0,0
22.01.2019 10:00:00 -9,0 -11,2 11 6 22 12 WSW 46 0,0
22.01.2019 09:00:00 -10,4 -12,7 10 5 22 12 WSW 50 0,0
22.01.2019 08:00:00 -10,9 -12,6 16 9 19 10 WSW 50 0,0
22.01.2019 07:00:00 -13,3 -15,6 5 3 15 8 NW 50 0,0
22.01.2019 06:00:00 -11,7 -13,4 11 6 15 8 W 50 0,0
22.01.2019 05:00:00 -15,5 -17,6 6 4 16 8 NNW 50 0,0
22.01.2019 04:00:00 -10,9 -13,1 13 7 16 9 W 50 0,0
22.01.2019 03:00:00 -11,7 -14,0 10 5 19 10 WNW 50 0,0
22.01.2019 02:00:00 -10,7 -13,0 15 8 21 11 W 50 0,0
22.01.2019 01:00:00 -10,3 -12,6 17 9 21 11 W 50 0,0
22.01.2019 00:00:00 -10,1 -12,4 16 9 21 12 WNW 50 0,0
21.01.2019 23:00:00 -10,5 -12,2 18 10 21 12 W 50 0,0
21.01.2019 22:00:00 -15,5 -17,6 6 4 15 8 WNW 31 0,0
21.01.2019 21:00:00 -16,3 -18,5 10 5 15 8 NW 50 0,0
21.01.2019 20:00:00 -13,9 -15,9 13 7 15 8 WNW 50 0,0
21.01.2019 19:00:00 -14,6 -16,7 11 6 15 8 NW 50 0,0
21.01.2019 18:00:00 -15,3 -17,5 10 6 16 9 NW 8 0,0
21.01.2019 17:00:00 -16,2 -18,4 13 7 16 9 NW 50 0,0
21.01.2019 16:00:00 -17,5 -19,8 13 7 16 9 NW 50 0,0
21.01.2019 15:00:00 -16,1 -18,3 11 6 14 8 NW 50 0,0
21.01.2019 14:00:00 -15,6 -17,8 6 3 9 5 NW 6 0,0
21.01.2019 13:00:00 -16,3 -18,7 3 2 16 8 NW 1,0 0,0
21.01.2019 12:00:00 -15,9 -18,3 4 2 18 10 NNW 27 0,0
21.01.2019 11:00:00 -17,5 -20,0 11 6 18 10 NW 6 0,0
21.01.2019 10:00:00 -12,5 -14,5 9 5 10 6 WSW 27 0,0
21.01.2019 09:00:00 -18,9 -21,4 4 2 14 7 NNW 9 0,0
21.01.2019 08:00:00 -18,1 -20,5 9 5 14 7 NW 4,9 0,0
21.01.2019 07:00:00 -17,7 -20,0 3 2 13 7 WNW 50 0,0
21.01.2019 06:00:00 -18,4 -20,9 3 2 16 8 NNW 12 0,0
21.01.2019 05:00:00 -15,8 -17,9 12 7 22 12 NW 44 0,0
21.01.2019 04:00:00 -15,2 -17,3 11 6 23 12 NW 34 0,0
21.01.2019 03:00:00 -14,6 -16,6 19 10 23 13 NW 35 0,0
21.01.2019 02:00:00 -15,6 -18,0 14 7 25 14 NW 50 0,0
21.01.2019 01:00:00 -16,6 -19,2 18 10 25 14 NW 50 0,0
21.01.2019 00:00:00 -16,4 -19,0 19 10 23 13 NNW 50 0,0
20.01.2019 23:00:00 -16,7 -19,2 14 8 21 11 NNW 50 0,0
20.01.2019 22:00:00 -16,6 -18,9 13 7 25 13 NNW 43 0,0
20.01.2019 21:00:00 -16,5 -19,0 14 8 25 13 NNW 50 0,0
20.01.2019 20:00:00 -16,2 -18,7 17 9 23 12 NW 50 0,0
20.01.2019 19:00:00 -15,8 -18,3 16 9 22 12 NW 50 0,0
20.01.2019 18:00:00 -15,3 -17,8 16 9 27 15 NW 50 0,0
20.01.2019 17:00:00 -14,6 -17,3 16 9 28 15 NW 50 0,0
20.01.2019 16:00:00 -13,6 -16,3 17 9 28 15 NW 50 0,0
20.01.2019 15:00:00 -13,9 -16,6 20 11 28 15 NW 50 0,0
20.01.2019 14:00:00 -14,0 -16,5 16 8 25 13 NNW 35 0,0
20.01.2019 13:00:00 -13,5 -15,9 16 8 25 13 NW 8 0,0
20.01.2019 12:00:00 -13,7 -16,1 16 9 26 14 NW 11 0,0
20.01.2019 11:00:00 -14,7 -17,2 11 6 26 14 NNW 50 0,0
20.01.2019 10:00:00 -17,0 -19,5 15 8 25 13 NNW 50 0,0
20.01.2019 09:00:00 -17,4 -20,0 18 10 27 14 NW 50 0,0
20.01.2019 08:00:00 -17,4 -20,0 16 9 29 16 NW 50 0,0
20.01.2019 07:00:00 -17,0 -19,8 19 11 29 16 NNW 50 0,0
20.01.2019 06:00:00 -17,1 -19,9 16 9 28 15 NW 50 0,0
20.01.2019 05:00:00 -16,8 -19,4 20 11 28 15 NW 50 0,0
20.01.2019 04:00:00 -17,2 -19,8 18 10 28 15 NW 50 0,0
20.01.2019 03:00:00 -17,5 -20,1 19 10 29 15 NW 50 0,0
20.01.2019 02:00:00 -17,7 -20,5 18 10 29 16 NNW 50 0,0
20.01.2019 01:00:00 -18,1 -20,8 21 11 29 16 NW 50 0,0
20.01.2019 00:00:00 -18,0 -20,7 16 8 24 13 NNW 50 0,0
19.01.2019 23:00:00 -18,1 -20,8 15 8 24 13 NNW 50 0,0
19.01.2019 22:00:00 -17,5 -20,1 14 8 24 13 NW 39 0,0
19.01.2019 21:00:00 -17,9 -20,5 11 6 22 12 NNW 50 0,0
19.01.2019 20:00:00 -17,6 -20,2 16 8 23 13 NW 18 0,0
19.01.2019 19:00:00 -18,6 -21,2 15 8 23 13 NNW 14 -
19.01.2019 18:00:00 -20,3 -23,0 15 8 22 12 NNW 50 0,0
19.01.2019 17:00:00 -20,3 -23,0 15 8 21 11 NNW 50 0,0
19.01.2019 16:00:00 -19,7 -22,3 11 6 22 12 NNW 50 0,0
19.01.2019 15:00:00 -19,8 -22,5 14 8 23 12 NNW 50 0,0
19.01.2019 14:00:00 -20,0 -22,7 17 9 23 12 NNW 26 0,0
19.01.2019 13:00:00 -19,7 -22,4 12 6 16 9 NNW 50 0,0
19.01.2019 12:00:00 -18,9 -21,5 8 4 16 9 NNW 4,6 0,0
19.01.2019 11:00:00 -19,1 -21,7 7 4 16 8 NNW 7 0,0
19.01.2019 10:00:00 -19,1 -21,7 6 4 16 9 NNW 28 0,0
19.01.2019 09:00:00 -18,9 -21,5 10 5 16 9 N 6 -
19.01.2019 08:00:00 -19,7 -22,3 7 4 13 7 NW 35 0,0
19.01.2019 07:00:00 -19,8 -22,4 7 4 15 8 NNW 50 0,0
19.01.2019 06:00:00 -18,2 -20,7 9 5 16 9 N 38 0,0
19.01.2019 05:00:00 -18,8 -21,2 12 6 16 9 NNW 19 0,0
19.01.2019 04:00:00 -18,3 -20,6 4 2 14 8 NW 36 0,0
19.01.2019 03:00:00 -18,8 -21,4 10 5 14 8 NNW 50 0,0
19.01.2019 02:00:00 -19,0 -21,6 10 5 16 9 NW 50 0,0
19.01.2019 01:00:00 -17,8 -20,3 11 6 16 9 NNW 50 0,0
19.01.2019 00:00:00 -17,3 -19,6 12 6 20 11 NW 8 0,0
18.01.2019 23:00:00 -16,5 -18,8 11 6 22 12 NNW 3,0 0,0
18.01.2019 22:00:00 -16,5 -18,8 13 7 18 10 NNW 6 0,0
18.01.2019 21:00:00 -15,4 -17,8 13 7 18 10 NNW 5 0,0
18.01.2019 20:00:00 -14,3 -16,4 9 5 16 9 NW 3,4 0,0
18.01.2019 19:00:00 -14,5 -16,9 10 5 18 10 NNW 17 0,0
18.01.2019 18:00:00 -16,7 -19,2 9 5 18 10 NW 50 0,0
18.01.2019 17:00:00 -16,4 -18,9 11 6 18 10 NNW 50 0,0
18.01.2019 16:00:00 -15,8 -18,3 11 6 17 9 NNW 45 0,0
18.01.2019 15:00:00 -15,7 -18,2 11 6 22 12 NNW 47 0,0
18.01.2019 14:00:00 -15,6 -18,3 14 7 24 13 NNW 50 0,0
18.01.2019 13:00:00 -15,0 -17,7 17 9 24 13 NNW 50 0,0
18.01.2019 12:00:00 -15,2 -17,9 13 7 25 13 NNW 50 0,0
18.01.2019 11:00:00 -15,1 -17,8 16 8 25 13 NNW 50 0,0
18.01.2019 10:00:00 -15,0 -17,7 16 9 29 15 NNW 50 0,0
18.01.2019 09:00:00 -14,8 -17,3 16 9 29 15 NNW 50 0,0
18.01.2019 08:00:00 -14,5 -17,2 19 10 29 15 NNW 50 0,0
18.01.2019 07:00:00 -15,2 -17,7 18 10 29 15 NW 47 0,0
18.01.2019 06:00:00 -15,1 -17,8 21 11 29 16 NW 30 0,0
18.01.2019 05:00:00 -15,4 -18,0 18 10 29 16 NW 35 0,0
18.01.2019 04:00:00 - - - - 28 15 - - -
18.01.2019 03:00:00 -15,6 -18,3 17 9 29 15 NW 46 0,0
18.01.2019 02:00:00 -15,4 -18,1 20 11 29 15 NW 50 0,0
18.01.2019 01:00:00 -15,6 -18,1 18 10 26 14 NW 50 0,0
18.01.2019 00:00:00 -15,5 -18,0 17 9 26 14 NW 50 0,0
17.01.2019 23:00:00 -15,5 -17,9 16 9 26 14 NW 28 0,0
17.01.2019 22:00:00 -16,5 -18,8 15 8 25 14 NW 41 0,0
17.01.2019 21:00:00 -17,3 -19,8 19 10 24 13 NW 50 0,0
17.01.2019 20:00:00 -17,0 -19,3 13 7 23 13 NW 34 0,0
17.01.2019 19:00:00 -17,7 -20,2 16 9 23 12 NW 50 0,0
17.01.2019 18:00:00 -17,5 -19,8 16 9 23 12 NW 50 0,0
17.01.2019 17:00:00 -17,6 -19,9 16 8 23 12 NW 50 0,0
17.01.2019 16:00:00 -17,6 -19,9 15 8 20 11 NW 50 0,0
17.01.2019 15:00:00 -17,2 -19,5 11 6 17 9 NNW 39 0,0
17.01.2019 14:00:00 -17,9 -20,4 11 6 18 10 NW 50 0,0
17.01.2019 13:00:00 -17,6 -19,9 13 7 18 10 NW 50 0,0
17.01.2019 12:00:00 -17,4 -19,7 12 6 18 10 NNW 50 0,0
17.01.2019 11:00:00 -17,9 -20,4 13 7 17 9 NW 50 0,0
17.01.2019 10:00:00 -17,9 -20,4 11 6 18 10 NW 50 0,0
17.01.2019 09:00:00 -17,7 -20,0 12 7 18 10 NW 50 0,0
17.01.2019 08:00:00 -16,9 -19,2 11 6 15 8 NW 20 0,0
17.01.2019 07:00:00 -17,1 -19,4 11 6 17 9 NW 12 0,0
17.01.2019 06:00:00 -16,5 -18,7 10 5 17 9 NNW 14 0,0
17.01.2019 05:00:00 -15,7 -17,9 9 5 14 8 NW 2,5 0,0
17.01.2019 04:00:00 -16,1 -18,3 8 4 17 9 NNW 6 0,0
17.01.2019 03:00:00 -16,9 -19,1 9 5 17 9 NW 2,8 0,0

tt = temperature
td = dewpoint
ff = wind speed
fx = gusts
dd = wind direction
vv = visibility
rr = precipitation

Next stations